sensor_id;sensor_type;location;lat;lon;timestamp;P1;durP1;ratioP1;P2;durP2;ratioP2
20611;SDS011;10465;42.686;23.364;2022-09-09T00:01:00;12.63;;;10.35;;
20611;SDS011;10465;42.686;23.364;2022-09-09T00:03:57;12.23;;;9.57;;
20611;SDS011;10465;42.686;23.364;2022-09-09T00:06:46;10.57;;;9.45;;
20611;SDS011;10465;42.686;23.364;2022-09-09T00:09:21;12.57;;;10.02;;
20611;SDS011;10465;42.686;23.364;2022-09-09T00:11:54;12.27;;;10.18;;
20611;SDS011;10465;42.686;23.364;2022-09-09T00:14:37;12.05;;;9.45;;
20611;SDS011;10465;42.686;23.364;2022-09-09T00:17:12;10.77;;;9.15;;
20611;SDS011;10465;42.686;23.364;2022-09-09T00:19:47;14.55;;;10.40;;
20611;SDS011;10465;42.686;23.364;2022-09-09T00:22:24;12.95;;;10.02;;
20611;SDS011;10465;42.686;23.364;2022-09-09T00:24:53;12.68;;;10.00;;
20611;SDS011;10465;42.686;23.364;2022-09-09T00:30:26;11.27;;;9.45;;
20611;SDS011;10465;42.686;23.364;2022-09-09T00:33:00;13.80;;;9.93;;
20611;SDS011;10465;42.686;23.364;2022-09-09T00:35:37;14.10;;;10.77;;
20611;SDS011;10465;42.686;23.364;2022-09-09T00:41:10;15.43;;;10.40;;
20611;SDS011;10465;42.686;23.364;2022-09-09T00:43:42;11.80;;;10.57;;
20611;SDS011;10465;42.686;23.364;2022-09-09T00:46:32;14.32;;;10.23;;
20611;SDS011;10465;42.686;23.364;2022-09-09T00:54:50;12.55;;;11.15;;
20611;SDS011;10465;42.686;23.364;2022-09-09T00:57:40;13.57;;;9.98;;
20611;SDS011;10465;42.686;23.364;2022-09-09T01:00:22;11.30;;;9.20;;
20611;SDS011;10465;42.686;23.364;2022-09-09T01:08:00;9.77;;;8.77;;
20611;SDS011;10465;42.686;23.364;2022-09-09T01:10:30;9.18;;;8.10;;
20611;SDS011;10465;42.686;23.364;2022-09-09T01:13:17;10.80;;;8.15;;
20611;SDS011;10465;42.686;23.364;2022-09-09T01:15:48;9.70;;;8.35;;
20611;SDS011;10465;42.686;23.364;2022-09-09T01:18:19;12.23;;;9.55;;
20611;SDS011;10465;42.686;23.364;2022-09-09T01:26:47;13.30;;;8.90;;
20611;SDS011;10465;42.686;23.364;2022-09-09T01:29:16;10.38;;;7.82;;
20611;SDS011;10465;42.686;23.364;2022-09-09T01:34:27;11.77;;;8.95;;
20611;SDS011;10465;42.686;23.364;2022-09-09T01:37:03;11.68;;;8.98;;
20611;SDS011;10465;42.686;23.364;2022-09-09T01:39:41;11.68;;;9.27;;
20611;SDS011;10465;42.686;23.364;2022-09-09T01:42:10;9.60;;;8.00;;
20611;SDS011;10465;42.686;23.364;2022-09-09T01:44:38;10.05;;;8.65;;
20611;SDS011;10465;42.686;23.364;2022-09-09T01:47:04;11.60;;;8.85;;
20611;SDS011;10465;42.686;23.364;2022-09-09T01:49:31;9.55;;;8.55;;
20611;SDS011;10465;42.686;23.364;2022-09-09T01:51:57;10.85;;;8.82;;
20611;SDS011;10465;42.686;23.364;2022-09-09T01:54:25;9.68;;;8.68;;
20611;SDS011;10465;42.686;23.364;2022-09-09T01:59:34;9.95;;;8.63;;
20611;SDS011;10465;42.686;23.364;2022-09-09T02:02:11;10.27;;;9.20;;
20611;SDS011;10465;42.686;23.364;2022-09-09T02:04:43;9.55;;;7.93;;
20611;SDS011;10465;42.686;23.364;2022-09-09T02:07:56;9.82;;;8.82;;
20611;SDS011;10465;42.686;23.364;2022-09-09T02:12:55;12.25;;;8.70;;
20611;SDS011;10465;42.686;23.364;2022-09-09T02:15:38;11.52;;;9.05;;
20611;SDS011;10465;42.686;23.364;2022-09-09T02:18:12;13.38;;;9.10;;
20611;SDS011;10465;42.686;23.364;2022-09-09T02:20:43;9.63;;;8.57;;
20611;SDS011;10465;42.686;23.364;2022-09-09T02:23:10;10.38;;;9.27;;
20611;SDS011;10465;42.686;23.364;2022-09-09T02:25:37;10.60;;;9.27;;
20611;SDS011;10465;42.686;23.364;2022-09-09T02:28:06;10.20;;;9.20;;
20611;SDS011;10465;42.686;23.364;2022-09-09T02:30:35;10.25;;;9.18;;
20611;SDS011;10465;42.686;23.364;2022-09-09T02:33:03;10.75;;;9.32;;
20611;SDS011;10465;42.686;23.364;2022-09-09T02:35:31;14.65;;;9.55;;
20611;SDS011;10465;42.686;23.364;2022-09-09T02:38:04;12.55;;;10.10;;
20611;SDS011;10465;42.686;23.364;2022-09-09T02:40:32;10.45;;;9.35;;
20611;SDS011;10465;42.686;23.364;2022-09-09T02:42:57;11.80;;;9.60;;
20611;SDS011;10465;42.686;23.364;2022-09-09T02:45:25;10.77;;;9.60;;
20611;SDS011;10465;42.686;23.364;2022-09-09T02:47:59;11.38;;;9.35;;
20611;SDS011;10465;42.686;23.364;2022-09-09T02:50:29;10.90;;;9.70;;
20611;SDS011;10465;42.686;23.364;2022-09-09T02:55:47;10.20;;;9.13;;
20611;SDS011;10465;42.686;23.364;2022-09-09T02:58:27;11.27;;;9.45;;
20611;SDS011;10465;42.686;23.364;2022-09-09T03:00:52;12.57;;;9.73;;
20611;SDS011;10465;42.686;23.364;2022-09-09T03:03:18;10.43;;;8.90;;
20611;SDS011;10465;42.686;23.364;2022-09-09T03:05:44;10.77;;;9.65;;
20611;SDS011;10465;42.686;23.364;2022-09-09T03:08:10;10.68;;;9.57;;
20611;SDS011;10465;42.686;23.364;2022-09-09T03:10:37;12.48;;;10.50;;
20611;SDS011;10465;42.686;23.364;2022-09-09T03:13:03;14.30;;;10.20;;
20611;SDS011;10465;42.686;23.364;2022-09-09T03:15:30;13.05;;;10.70;;
20611;SDS011;10465;42.686;23.364;2022-09-09T03:17:57;13.45;;;11.15;;
20611;SDS011;10465;42.686;23.364;2022-09-09T03:20:26;14.27;;;11.52;;
20611;SDS011;10465;42.686;23.364;2022-09-09T03:22:53;13.85;;;11.75;;
20611;SDS011;10465;42.686;23.364;2022-09-09T03:25:19;12.68;;;11.40;;
20611;SDS011;10465;42.686;23.364;2022-09-09T03:27:45;12.25;;;11.02;;
20611;SDS011;10465;42.686;23.364;2022-09-09T03:30:10;13.48;;;10.48;;
20611;SDS011;10465;42.686;23.364;2022-09-09T03:32:36;11.93;;;10.60;;
20611;SDS011;10465;42.686;23.364;2022-09-09T03:35:02;14.77;;;11.13;;
20611;SDS011;10465;42.686;23.364;2022-09-09T03:37:27;12.52;;;10.88;;
20611;SDS011;10465;42.686;23.364;2022-09-09T03:39:53;14.10;;;11.23;;
20611;SDS011;10465;42.686;23.364;2022-09-09T03:42:21;13.27;;;11.48;;
20611;SDS011;10465;42.686;23.364;2022-09-09T03:44:47;12.77;;;11.48;;
20611;SDS011;10465;42.686;23.364;2022-09-09T03:47:15;14.68;;;11.95;;
20611;SDS011;10465;42.686;23.364;2022-09-09T03:49:49;15.13;;;11.10;;
20611;SDS011;10465;42.686;23.364;2022-09-09T03:52:15;13.00;;;11.50;;
20611;SDS011;10465;42.686;23.364;2022-09-09T03:54:41;16.92;;;12.02;;
20611;SDS011;10465;42.686;23.364;2022-09-09T03:57:07;13.20;;;11.88;;
20611;SDS011;10465;42.686;23.364;2022-09-09T03:59:36;13.10;;;11.73;;
20611;SDS011;10465;42.686;23.364;2022-09-09T04:02:01;12.77;;;11.40;;
20611;SDS011;10465;42.686;23.364;2022-09-09T04:04:27;13.55;;;12.15;;
20611;SDS011;10465;42.686;23.364;2022-09-09T04:06:53;13.88;;;12.00;;
20611;SDS011;10465;42.686;23.364;2022-09-09T04:09:19;13.23;;;11.82;;
20611;SDS011;10465;42.686;23.364;2022-09-09T04:11:44;14.90;;;11.32;;
20611;SDS011;10465;42.686;23.364;2022-09-09T04:14:11;13.52;;;11.80;;
20611;SDS011;10465;42.686;23.364;2022-09-09T04:16:37;13.23;;;11.73;;
20611;SDS011;10465;42.686;23.364;2022-09-09T04:19:04;15.32;;;11.60;;
20611;SDS011;10465;42.686;23.364;2022-09-09T04:21:31;17.63;;;11.70;;
20611;SDS011;10465;42.686;23.364;2022-09-09T04:23:57;15.32;;;11.82;;
20611;SDS011;10465;42.686;23.364;2022-09-09T04:26:22;15.98;;;12.02;;
20611;SDS011;10465;42.686;23.364;2022-09-09T04:28:48;15.15;;;13.00;;
20611;SDS011;10465;42.686;23.364;2022-09-09T04:31:17;17.88;;;12.65;;
20611;SDS011;10465;42.686;23.364;2022-09-09T04:33:48;15.60;;;12.27;;
20611;SDS011;10465;42.686;23.364;2022-09-09T04:36:14;13.73;;;12.07;;
20611;SDS011;10465;42.686;23.364;2022-09-09T04:38:40;18.20;;;11.98;;
20611;SDS011;10465;42.686;23.364;2022-09-09T04:41:06;13.85;;;12.40;;
20611;SDS011;10465;42.686;23.364;2022-09-09T04:43:32;13.38;;;11.98;;
20611;SDS011;10465;42.686;23.364;2022-09-09T04:45:58;14.35;;;12.00;;
20611;SDS011;10465;42.686;23.364;2022-09-09T04:48:26;14.25;;;12.73;;
20611;SDS011;10465;42.686;23.364;2022-09-09T04:50:59;14.93;;;12.40;;
20611;SDS011;10465;42.686;23.364;2022-09-09T04:53:26;18.20;;;12.48;;
20611;SDS011;10465;42.686;23.364;2022-09-09T04:56:00;24.75;;;12.93;;
20611;SDS011;10465;42.686;23.364;2022-09-09T04:58:29;39.65;;;15.40;;
20611;SDS011;10465;42.686;23.364;2022-09-09T05:00:54;18.13;;;13.35;;
20611;SDS011;10465;42.686;23.364;2022-09-09T05:03:20;19.80;;;12.45;;
20611;SDS011;10465;42.686;23.364;2022-09-09T05:05:46;17.88;;;14.40;;
20611;SDS011;10465;42.686;23.364;2022-09-09T05:08:12;14.30;;;12.38;;
20611;SDS011;10465;42.686;23.364;2022-09-09T05:10:38;15.77;;;12.98;;
20611;SDS011;10465;42.686;23.364;2022-09-09T05:13:04;16.85;;;12.93;;
20611;SDS011;10465;42.686;23.364;2022-09-09T05:15:30;16.35;;;12.18;;
20611;SDS011;10465;42.686;23.364;2022-09-09T05:17:57;20.48;;;13.18;;
20611;SDS011;10465;42.686;23.364;2022-09-09T05:20:23;14.88;;;12.75;;
20611;SDS011;10465;42.686;23.364;2022-09-09T05:22:52;18.60;;;13.35;;
20611;SDS011;10465;42.686;23.364;2022-09-09T05:25:19;16.33;;;12.55;;
20611;SDS011;10465;42.686;23.364;2022-09-09T05:27:44;12.50;;;11.20;;
20611;SDS011;10465;42.686;23.364;2022-09-09T05:30:10;18.30;;;12.73;;
20611;SDS011;10465;42.686;23.364;2022-09-09T05:32:35;16.05;;;12.43;;
20611;SDS011;10465;42.686;23.364;2022-09-09T05:35:01;15.48;;;11.93;;
20611;SDS011;10465;42.686;23.364;2022-09-09T05:37:27;14.82;;;11.93;;
20611;SDS011;10465;42.686;23.364;2022-09-09T05:39:54;15.00;;;11.60;;
20611;SDS011;10465;42.686;23.364;2022-09-09T05:42:19;16.20;;;12.63;;
20611;SDS011;10465;42.686;23.364;2022-09-09T05:44:45;16.33;;;11.82;;
20611;SDS011;10465;42.686;23.364;2022-09-09T05:47:10;14.75;;;11.07;;
20611;SDS011;10465;42.686;23.364;2022-09-09T05:49:36;14.90;;;10.45;;
20611;SDS011;10465;42.686;23.364;2022-09-09T05:52:02;13.50;;;10.20;;
20611;SDS011;10465;42.686;23.364;2022-09-09T05:54:28;14.02;;;11.05;;
20611;SDS011;10465;42.686;23.364;2022-09-09T05:56:54;15.70;;;10.95;;
20611;SDS011;10465;42.686;23.364;2022-09-09T05:59:19;14.55;;;10.07;;
20611;SDS011;10465;42.686;23.364;2022-09-09T06:01:45;22.40;;;17.55;;
20611;SDS011;10465;42.686;23.364;2022-09-09T06:04:11;15.50;;;12.50;;
20611;SDS011;10465;42.686;23.364;2022-09-09T06:06:37;13.05;;;10.63;;
20611;SDS011;10465;42.686;23.364;2022-09-09T06:09:05;13.85;;;10.82;;
20611;SDS011;10465;42.686;23.364;2022-09-09T06:11:34;12.15;;;9.63;;
20611;SDS011;10465;42.686;23.364;2022-09-09T06:14:01;14.45;;;9.63;;
20611;SDS011;10465;42.686;23.364;2022-09-09T06:16:27;12.43;;;9.07;;
20611;SDS011;10465;42.686;23.364;2022-09-09T06:18:54;14.52;;;9.82;;
20611;SDS011;10465;42.686;23.364;2022-09-09T06:21:22;14.48;;;10.10;;
20611;SDS011;10465;42.686;23.364;2022-09-09T06:23:49;14.35;;;9.45;;
20611;SDS011;10465;42.686;23.364;2022-09-09T06:28:46;12.38;;;7.70;;
20611;SDS011;10465;42.686;23.364;2022-09-09T06:31:15;11.43;;;7.78;;
20611;SDS011;10465;42.686;23.364;2022-09-09T06:33:42;11.57;;;7.53;;
20611;SDS011;10465;42.686;23.364;2022-09-09T06:36:12;10.00;;;6.85;;
20611;SDS011;10465;42.686;23.364;2022-09-09T06:38:40;11.18;;;6.65;;
20611;SDS011;10465;42.686;23.364;2022-09-09T06:41:08;10.52;;;7.72;;
20611;SDS011;10465;42.686;23.364;2022-09-09T06:43:35;8.55;;;7.65;;
20611;SDS011;10465;42.686;23.364;2022-09-09T06:46:01;10.02;;;7.45;;
20611;SDS011;10465;42.686;23.364;2022-09-09T06:48:28;8.48;;;6.95;;
20611;SDS011;10465;42.686;23.364;2022-09-09T06:51:01;12.18;;;8.05;;
20611;SDS011;10465;42.686;23.364;2022-09-09T06:53:38;12.73;;;8.00;;
20611;SDS011;10465;42.686;23.364;2022-09-09T06:58:39;10.10;;;7.00;;
20611;SDS011;10465;42.686;23.364;2022-09-09T07:01:18;8.95;;;6.80;;
20611;SDS011;10465;42.686;23.364;2022-09-09T07:03:46;10.23;;;6.28;;
20611;SDS011;10465;42.686;23.364;2022-09-09T07:06:18;7.18;;;6.43;;
20611;SDS011;10465;42.686;23.364;2022-09-09T07:08:49;16.50;;;8.98;;
20611;SDS011;10465;42.686;23.364;2022-09-09T07:11:16;10.23;;;7.70;;
20611;SDS011;10465;42.686;23.364;2022-09-09T07:13:42;11.25;;;7.50;;
20611;SDS011;10465;42.686;23.364;2022-09-09T07:16:08;15.38;;;7.35;;
20611;SDS011;10465;42.686;23.364;2022-09-09T07:18:35;6.85;;;6.15;;
20611;SDS011;10465;42.686;23.364;2022-09-09T07:21:01;8.77;;;7.53;;
20611;SDS011;10465;42.686;23.364;2022-09-09T07:23:29;12.45;;;7.50;;
20611;SDS011;10465;42.686;23.364;2022-09-09T07:25:55;8.48;;;6.38;;
20611;SDS011;10465;42.686;23.364;2022-09-09T07:28:22;9.68;;;6.68;;
20611;SDS011;10465;42.686;23.364;2022-09-09T07:30:59;11.52;;;7.93;;
20611;SDS011;10465;42.686;23.364;2022-09-09T07:33:28;6.82;;;6.10;;
20611;SDS011;10465;42.686;23.364;2022-09-09T07:36:15;7.25;;;6.22;;
20611;SDS011;10465;42.686;23.364;2022-09-09T07:38:41;10.15;;;7.38;;
20611;SDS011;10465;42.686;23.364;2022-09-09T07:41:10;10.00;;;6.78;;
20611;SDS011;10465;42.686;23.364;2022-09-09T07:43:38;11.15;;;6.18;;
20611;SDS011;10465;42.686;23.364;2022-09-09T07:46:05;10.45;;;7.13;;
20611;SDS011;10465;42.686;23.364;2022-09-09T07:48:31;8.95;;;6.57;;
20611;SDS011;10465;42.686;23.364;2022-09-09T07:51:31;10.38;;;6.13;;
20611;SDS011;10465;42.686;23.364;2022-09-09T07:53:53;11.00;;;6.95;;
20611;SDS011;10465;42.686;23.364;2022-09-09T07:56:27;6.80;;;6.10;;
20611;SDS011;10465;42.686;23.364;2022-09-09T07:58:55;8.77;;;6.10;;
20611;SDS011;10465;42.686;23.364;2022-09-09T08:01:25;11.15;;;6.57;;
20611;SDS011;10465;42.686;23.364;2022-09-09T08:04:05;9.63;;;6.60;;
20611;SDS011;10465;42.686;23.364;2022-09-09T08:06:37;8.27;;;5.60;;
20611;SDS011;10465;42.686;23.364;2022-09-09T08:09:04;7.47;;;6.35;;
20611;SDS011;10465;42.686;23.364;2022-09-09T08:11:31;6.78;;;6.07;;
20611;SDS011;10465;42.686;23.364;2022-09-09T08:13:58;14.75;;;6.43;;
20611;SDS011;10465;42.686;23.364;2022-09-09T08:16:28;7.07;;;5.30;;
20611;SDS011;10465;42.686;23.364;2022-09-09T08:18:56;6.63;;;6.00;;
20611;SDS011;10465;42.686;23.364;2022-09-09T08:21:25;10.07;;;7.00;;
20611;SDS011;10465;42.686;23.364;2022-09-09T08:23:53;7.75;;;5.80;;
20611;SDS011;10465;42.686;23.364;2022-09-09T08:26:24;13.07;;;5.78;;
20611;SDS011;10465;42.686;23.364;2022-09-09T08:28:50;9.30;;;5.88;;
20611;SDS011;10465;42.686;23.364;2022-09-09T08:31:24;7.07;;;6.38;;
20611;SDS011;10465;42.686;23.364;2022-09-09T08:33:53;8.35;;;5.93;;
20611;SDS011;10465;42.686;23.364;2022-09-09T08:36:20;12.65;;;6.32;;
20611;SDS011;10465;42.686;23.364;2022-09-09T08:38:47;9.45;;;6.82;;
20611;SDS011;10465;42.686;23.364;2022-09-09T08:43:46;8.45;;;6.47;;
20611;SDS011;10465;42.686;23.364;2022-09-09T08:46:24;11.20;;;6.18;;
20611;SDS011;10465;42.686;23.364;2022-09-09T08:51:38;8.63;;;6.22;;
20611;SDS011;10465;42.686;23.364;2022-09-09T08:54:04;7.05;;;6.10;;
20611;SDS011;10465;42.686;23.364;2022-09-09T08:56:31;8.35;;;7.38;;
20611;SDS011;10465;42.686;23.364;2022-09-09T08:58:57;7.63;;;6.45;;
20611;SDS011;10465;42.686;23.364;2022-09-09T09:04:58;10.60;;;6.63;;
20611;SDS011;10465;42.686;23.364;2022-09-09T09:09:46;7.95;;;6.53;;
20611;SDS011;10465;42.686;23.364;2022-09-09T09:12:19;7.80;;;6.85;;
20611;SDS011;10465;42.686;23.364;2022-09-09T09:14:46;7.47;;;6.43;;
20611;SDS011;10465;42.686;23.364;2022-09-09T09:17:14;8.05;;;6.25;;
20611;SDS011;10465;42.686;23.364;2022-09-09T09:19:44;8.82;;;6.68;;
20611;SDS011;10465;42.686;23.364;2022-09-09T09:22:22;10.82;;;7.85;;
20611;SDS011;10465;42.686;23.364;2022-09-09T09:28:00;7.57;;;6.35;;
20611;SDS011;10465;42.686;23.364;2022-09-09T09:30:28;8.35;;;6.15;;
20611;SDS011;10465;42.686;23.364;2022-09-09T09:33:02;9.32;;;6.47;;
20611;SDS011;10465;42.686;23.364;2022-09-09T09:35:28;8.05;;;5.75;;
20611;SDS011;10465;42.686;23.364;2022-09-09T09:37:54;8.27;;;6.95;;
20611;SDS011;10465;42.686;23.364;2022-09-09T09:40:20;8.93;;;6.90;;
20611;SDS011;10465;42.686;23.364;2022-09-09T09:42:51;8.80;;;6.47;;
20611;SDS011;10465;42.686;23.364;2022-09-09T09:48:02;11.02;;;6.68;;
20611;SDS011;10465;42.686;23.364;2022-09-09T09:50:30;8.35;;;6.40;;
20611;SDS011;10465;42.686;23.364;2022-09-09T09:52:57;9.82;;;6.70;;
20611;SDS011;10465;42.686;23.364;2022-09-09T09:55:47;9.77;;;6.60;;
20611;SDS011;10465;42.686;23.364;2022-09-09T09:58:18;8.77;;;6.60;;
20611;SDS011;10465;42.686;23.364;2022-09-09T10:00:47;9.82;;;6.57;;
20611;SDS011;10465;42.686;23.364;2022-09-09T10:03:21;10.32;;;6.45;;
20611;SDS011;10465;42.686;23.364;2022-09-09T10:05:52;8.55;;;6.57;;
20611;SDS011;10465;42.686;23.364;2022-09-09T10:08:18;8.02;;;6.15;;
20611;SDS011;10465;42.686;23.364;2022-09-09T10:26:46;11.52;;;8.27;;
20611;SDS011;10465;42.686;23.364;2022-09-09T10:34:56;11.55;;;7.20;;
20611;SDS011;10465;42.686;23.364;2022-09-09T10:40:24;8.60;;;6.93;;
20611;SDS011;10465;42.686;23.364;2022-09-09T10:57:04;7.80;;;7.00;;
20611;SDS011;10465;42.686;23.364;2022-09-09T10:59:38;12.60;;;7.72;;
20611;SDS011;10465;42.686;23.364;2022-09-09T11:02:21;9.80;;;8.25;;
20611;SDS011;10465;42.686;23.364;2022-09-09T11:07:39;14.85;;;8.18;;
20611;SDS011;10465;42.686;23.364;2022-09-09T11:10:17;15.70;;;8.05;;
20611;SDS011;10465;42.686;23.364;2022-09-09T11:12:49;11.85;;;7.95;;
20611;SDS011;10465;42.686;23.364;2022-09-09T11:15:20;10.43;;;8.45;;
20611;SDS011;10465;42.686;23.364;2022-09-09T11:17:52;13.40;;;8.40;;
20611;SDS011;10465;42.686;23.364;2022-09-09T11:20:21;12.98;;;8.15;;
20611;SDS011;10465;42.686;23.364;2022-09-09T11:38:52;12.27;;;7.85;;
20611;SDS011;10465;42.686;23.364;2022-09-09T11:41:22;14.80;;;8.10;;
20611;SDS011;10465;42.686;23.364;2022-09-09T11:43:51;12.48;;;9.85;;
20611;SDS011;10465;42.686;23.364;2022-09-09T11:46:19;12.88;;;11.20;;
20611;SDS011;10465;42.686;23.364;2022-09-09T11:49:00;14.88;;;10.63;;
20611;SDS011;10465;42.686;23.364;2022-09-09T11:51:28;13.48;;;9.00;;
20611;SDS011;10465;42.686;23.364;2022-09-09T11:53:57;12.88;;;8.35;;
20611;SDS011;10465;42.686;23.364;2022-09-09T12:02:22;11.90;;;8.27;;
20611;SDS011;10465;42.686;23.364;2022-09-09T12:07:42;12.90;;;7.82;;
20611;SDS011;10465;42.686;23.364;2022-09-09T12:12:44;13.38;;;9.05;;
20611;SDS011;10465;42.686;23.364;2022-09-09T12:17:42;12.60;;;9.30;;
20611;SDS011;10465;42.686;23.364;2022-09-09T12:20:16;13.10;;;8.43;;
20611;SDS011;10465;42.686;23.364;2022-09-09T12:33:33;9.65;;;8.65;;
20611;SDS011;10465;42.686;23.364;2022-09-09T12:36:11;11.07;;;9.55;;
20611;SDS011;10465;42.686;23.364;2022-09-09T12:38:41;13.13;;;8.25;;
20611;SDS011;10465;42.686;23.364;2022-09-09T12:43:50;12.82;;;9.48;;
20611;SDS011;10465;42.686;23.364;2022-09-09T12:46:31;12.85;;;8.63;;
20611;SDS011;10465;42.686;23.364;2022-09-09T12:49:01;11.25;;;8.95;;
20611;SDS011;10465;42.686;23.364;2022-09-09T12:51:28;11.25;;;9.63;;
20611;SDS011;10465;42.686;23.364;2022-09-09T12:53:56;11.90;;;8.85;;
20611;SDS011;10465;42.686;23.364;2022-09-09T12:56:24;10.20;;;8.98;;
20611;SDS011;10465;42.686;23.364;2022-09-09T12:58:52;10.73;;;8.50;;
20611;SDS011;10465;42.686;23.364;2022-09-09T13:01:54;14.02;;;9.38;;
20611;SDS011;10465;42.686;23.364;2022-09-09T13:04:19;13.93;;;9.15;;
20611;SDS011;10465;42.686;23.364;2022-09-09T13:06:47;11.60;;;9.90;;
20611;SDS011;10465;42.686;23.364;2022-09-09T13:09:12;14.50;;;9.48;;
20611;SDS011;10465;42.686;23.364;2022-09-09T13:11:41;11.95;;;8.93;;
20611;SDS011;10465;42.686;23.364;2022-09-09T13:16:54;11.57;;;9.60;;
20611;SDS011;10465;42.686;23.364;2022-09-09T13:19:24;10.80;;;8.93;;
20611;SDS011;10465;42.686;23.364;2022-09-09T13:21:53;16.35;;;8.73;;
20611;SDS011;10465;42.686;23.364;2022-09-09T13:27:04;9.52;;;8.40;;
20611;SDS011;10465;42.686;23.364;2022-09-09T13:29:50;11.50;;;8.38;;
20611;SDS011;10465;42.686;23.364;2022-09-09T13:32:20;10.75;;;9.00;;
20611;SDS011;10465;42.686;23.364;2022-09-09T13:34:54;10.73;;;8.90;;
20611;SDS011;10465;42.686;23.364;2022-09-09T13:39:59;9.55;;;8.65;;
20611;SDS011;10465;42.686;23.364;2022-09-09T13:42:30;11.10;;;9.45;;
20611;SDS011;10465;42.686;23.364;2022-09-09T13:45:00;12.10;;;9.00;;
20611;SDS011;10465;42.686;23.364;2022-09-09T13:49:54;12.85;;;9.13;;
20611;SDS011;10465;42.686;23.364;2022-09-09T13:52:20;11.52;;;9.13;;
20611;SDS011;10465;42.686;23.364;2022-09-09T13:54:50;13.80;;;9.85;;
20611;SDS011;10465;42.686;23.364;2022-09-09T13:57:17;12.90;;;9.70;;
20611;SDS011;10465;42.686;23.364;2022-09-09T13:59:45;13.25;;;10.48;;
20611;SDS011;10465;42.686;23.364;2022-09-09T14:02:11;11.68;;;9.20;;
20611;SDS011;10465;42.686;23.364;2022-09-09T14:04:37;16.00;;;9.82;;
20611;SDS011;10465;42.686;23.364;2022-09-09T14:07:03;14.40;;;9.68;;
20611;SDS011;10465;42.686;23.364;2022-09-09T14:09:28;12.45;;;9.75;;
20611;SDS011;10465;42.686;23.364;2022-09-09T14:11:54;13.98;;;9.68;;
20611;SDS011;10465;42.686;23.364;2022-09-09T14:14:22;12.75;;;8.30;;
20611;SDS011;10465;42.686;23.364;2022-09-09T14:16:48;9.73;;;8.77;;
20611;SDS011;10465;42.686;23.364;2022-09-09T14:19:13;13.43;;;8.45;;
20611;SDS011;10465;42.686;23.364;2022-09-09T14:21:39;12.05;;;8.73;;
20611;SDS011;10465;42.686;23.364;2022-09-09T14:24:04;17.13;;;8.77;;
20611;SDS011;10465;42.686;23.364;2022-09-09T14:26:30;13.30;;;8.77;;
20611;SDS011;10465;42.686;23.364;2022-09-09T14:28:56;12.07;;;8.57;;
20611;SDS011;10465;42.686;23.364;2022-09-09T14:31:22;11.45;;;8.73;;
20611;SDS011;10465;42.686;23.364;2022-09-09T14:33:49;13.75;;;8.75;;
20611;SDS011;10465;42.686;23.364;2022-09-09T14:36:15;13.88;;;8.98;;
20611;SDS011;10465;42.686;23.364;2022-09-09T14:38:41;10.98;;;8.27;;
20611;SDS011;10465;42.686;23.364;2022-09-09T14:41:11;16.08;;;9.27;;
20611;SDS011;10465;42.686;23.364;2022-09-09T14:43:39;9.73;;;8.15;;
20611;SDS011;10465;42.686;23.364;2022-09-09T14:46:05;11.15;;;8.43;;
20611;SDS011;10465;42.686;23.364;2022-09-09T14:48:35;12.57;;;8.23;;
20611;SDS011;10465;42.686;23.364;2022-09-09T14:51:05;10.40;;;8.60;;
20611;SDS011;10465;42.686;23.364;2022-09-09T14:53:54;11.80;;;7.95;;
20611;SDS011;10465;42.686;23.364;2022-09-09T14:56:22;13.18;;;8.23;;
20611;SDS011;10465;42.686;23.364;2022-09-09T14:58:52;11.95;;;8.50;;
20611;SDS011;10465;42.686;23.364;2022-09-09T15:01:20;12.40;;;8.27;;
20611;SDS011;10465;42.686;23.364;2022-09-09T15:03:52;17.45;;;8.40;;
20611;SDS011;10465;42.686;23.364;2022-09-09T15:06:26;10.75;;;8.25;;
20611;SDS011;10465;42.686;23.364;2022-09-09T15:08:54;12.25;;;9.00;;
20611;SDS011;10465;42.686;23.364;2022-09-09T15:11:23;10.60;;;9.13;;
20611;SDS011;10465;42.686;23.364;2022-09-09T15:13:50;15.77;;;8.88;;
20611;SDS011;10465;42.686;23.364;2022-09-09T15:16:20;10.48;;;7.93;;
20611;SDS011;10465;42.686;23.364;2022-09-09T15:18:50;17.85;;;9.35;;
20611;SDS011;10465;42.686;23.364;2022-09-09T15:21:19;15.93;;;9.02;;
20611;SDS011;10465;42.686;23.364;2022-09-09T15:23:47;13.40;;;9.63;;
20611;SDS011;10465;42.686;23.364;2022-09-09T15:26:13;18.67;;;9.20;;
20611;SDS011;10465;42.686;23.364;2022-09-09T15:28:40;10.93;;;8.65;;
20611;SDS011;10465;42.686;23.364;2022-09-09T15:36:25;13.85;;;8.80;;
20611;SDS011;10465;42.686;23.364;2022-09-09T15:38:57;13.93;;;8.82;;
20611;SDS011;10465;42.686;23.364;2022-09-09T15:41:23;13.95;;;8.40;;
20611;SDS011;10465;42.686;23.364;2022-09-09T15:43:49;15.18;;;8.18;;
20611;SDS011;10465;42.686;23.364;2022-09-09T15:49:04;10.32;;;8.88;;
20611;SDS011;10465;42.686;23.364;2022-09-09T15:51:35;11.02;;;8.77;;
20611;SDS011;10465;42.686;23.364;2022-09-09T15:54:02;11.73;;;8.70;;
20611;SDS011;10465;42.686;23.364;2022-09-09T15:56:28;16.98;;;10.73;;
20611;SDS011;10465;42.686;23.364;2022-09-09T15:58:58;17.50;;;9.52;;
20611;SDS011;10465;42.686;23.364;2022-09-09T16:01:25;10.65;;;9.10;;
20611;SDS011;10465;42.686;23.364;2022-09-09T16:03:52;15.27;;;9.60;;
20611;SDS011;10465;42.686;23.364;2022-09-09T16:06:18;17.35;;;9.30;;
20611;SDS011;10465;42.686;23.364;2022-09-09T16:08:46;16.33;;;9.68;;
20611;SDS011;10465;42.686;23.364;2022-09-09T16:11:34;17.65;;;11.85;;
20611;SDS011;10465;42.686;23.364;2022-09-09T16:14:01;14.70;;;8.95;;
20611;SDS011;10465;42.686;23.364;2022-09-09T16:16:28;15.48;;;10.15;;
20611;SDS011;10465;42.686;23.364;2022-09-09T16:18:55;14.35;;;9.18;;
20611;SDS011;10465;42.686;23.364;2022-09-09T16:21:56;11.80;;;8.50;;
20611;SDS011;10465;42.686;23.364;2022-09-09T16:24:16;14.85;;;9.10;;
20611;SDS011;10465;42.686;23.364;2022-09-09T16:26:44;23.10;;;10.18;;
20611;SDS011;10465;42.686;23.364;2022-09-09T16:29:14;13.73;;;10.23;;
20611;SDS011;10465;42.686;23.364;2022-09-09T16:31:41;17.95;;;9.77;;
20611;SDS011;10465;42.686;23.364;2022-09-09T16:34:09;17.80;;;9.18;;
20611;SDS011;10465;42.686;23.364;2022-09-09T16:36:36;14.57;;;9.80;;
20611;SDS011;10465;42.686;23.364;2022-09-09T16:39:04;20.25;;;11.48;;
20611;SDS011;10465;42.686;23.364;2022-09-09T16:41:32;23.10;;;11.00;;
20611;SDS011;10465;42.686;23.364;2022-09-09T16:44:16;16.65;;;9.50;;
20611;SDS011;10465;42.686;23.364;2022-09-09T16:46:43;19.95;;;9.13;;
20611;SDS011;10465;42.686;23.364;2022-09-09T16:49:10;12.85;;;8.80;;
20611;SDS011;10465;42.686;23.364;2022-09-09T16:51:41;15.45;;;9.02;;
20611;SDS011;10465;42.686;23.364;2022-09-09T16:54:09;17.02;;;9.70;;
20611;SDS011;10465;42.686;23.364;2022-09-09T16:56:37;18.42;;;9.60;;
20611;SDS011;10465;42.686;23.364;2022-09-09T16:59:10;20.55;;;10.52;;
20611;SDS011;10465;42.686;23.364;2022-09-09T17:01:38;20.95;;;12.35;;
20611;SDS011;10465;42.686;23.364;2022-09-09T17:04:07;20.75;;;11.85;;
20611;SDS011;10465;42.686;23.364;2022-09-09T17:06:34;23.63;;;13.07;;
20611;SDS011;10465;42.686;23.364;2022-09-09T17:09:03;20.58;;;12.05;;
20611;SDS011;10465;42.686;23.364;2022-09-09T17:11:30;26.00;;;14.35;;
20611;SDS011;10465;42.686;23.364;2022-09-09T17:13:56;26.42;;;13.57;;